createdAt,value
2024-01-16T00:01:31.016Z,2.03
2024-01-16T00:03:58.162Z,3.23
2024-01-16T00:06:25.439Z,3.80
2024-01-16T00:08:52.692Z,4.23
2024-01-16T00:11:20.078Z,2.93
2024-01-16T00:13:47.448Z,2.93
2024-01-16T00:16:14.711Z,2.60
2024-01-16T00:18:42.205Z,2.53
2024-01-16T00:21:09.436Z,2.40
2024-01-16T00:23:36.620Z,2.00
2024-01-16T00:26:04.098Z,2.67
2024-01-16T00:28:32.930Z,3.13
2024-01-16T00:31:00.069Z,2.20
2024-01-16T00:33:28.620Z,2.67
2024-01-16T00:35:55.813Z,2.80
2024-01-16T00:38:23.344Z,2.30
2024-01-16T00:40:50.588Z,2.37
2024-01-16T00:43:17.690Z,2.40
2024-01-16T00:45:44.906Z,2.80
2024-01-16T00:48:15.376Z,2.87
2024-01-16T00:50:42.848Z,2.50
2024-01-16T00:53:10.020Z,3.37
2024-01-16T00:55:37.218Z,2.97
2024-01-16T00:58:04.511Z,3.10
2024-01-16T01:00:32.319Z,2.77
2024-01-16T01:03:02.231Z,3.00
2024-01-16T01:05:29.884Z,3.03
2024-01-16T01:07:57.616Z,3.00
2024-01-16T01:10:24.832Z,2.10
2024-01-16T01:12:54.954Z,2.30
2024-01-16T01:15:22.590Z,3.40
2024-01-16T01:17:53.172Z,2.37
2024-01-16T01:20:21.014Z,1.57
2024-01-16T01:22:48.586Z,2.03
2024-01-16T01:25:15.764Z,2.10
2024-01-16T01:27:42.881Z,1.90
2024-01-16T01:30:13.823Z,1.77
2024-01-16T01:32:41.309Z,1.70
2024-01-16T01:35:09.013Z,1.63
2024-01-16T01:37:36.205Z,2.00
2024-01-16T01:40:03.841Z,2.20
2024-01-16T01:42:31.016Z,2.20
2024-01-16T01:44:58.179Z,1.97
2024-01-16T01:47:25.882Z,2.43
2024-01-16T01:49:53.591Z,1.73
2024-01-16T01:52:20.760Z,2.40
2024-01-16T01:54:48.074Z,2.00
2024-01-16T01:57:15.262Z,2.00
2024-01-16T01:59:42.528Z,2.17
2024-01-16T02:02:09.871Z,2.27
2024-01-16T02:04:38.352Z,2.57
2024-01-16T02:07:06.104Z,2.80
2024-01-16T02:09:33.390Z,2.60
2024-01-16T02:12:00.706Z,2.90
2024-01-16T02:14:28.102Z,2.60
2024-01-16T02:16:55.250Z,3.20
2024-01-16T02:19:22.519Z,3.77
2024-01-16T02:21:51.268Z,3.53
2024-01-16T02:24:20.505Z,2.97
2024-01-16T02:26:48.081Z,2.63
2024-01-16T02:29:17.332Z,2.23
2024-01-16T02:31:44.507Z,2.10
2024-01-16T02:34:11.756Z,2.17
2024-01-16T02:36:38.895Z,2.13
2024-01-16T02:39:07.534Z,2.43
2024-01-16T02:41:34.801Z,2.10
2024-01-16T02:44:02.203Z,2.13
2024-01-16T02:46:29.343Z,1.93
2024-01-16T02:48:57.052Z,2.07
2024-01-16T02:51:24.207Z,2.20
2024-01-16T02:53:51.448Z,2.07
2024-01-16T02:56:18.670Z,2.73
2024-01-16T02:58:46.407Z,2.70
2024-01-16T03:01:13.814Z,2.30
2024-01-16T03:03:41.050Z,2.33
2024-01-16T03:06:08.395Z,1.57
2024-01-16T03:08:35.617Z,1.83
2024-01-16T03:11:03.991Z,1.93
2024-01-16T03:13:31.313Z,2.30
2024-01-16T03:15:58.549Z,2.47
2024-01-16T03:18:25.784Z,3.00
2024-01-16T03:20:53.283Z,3.70
2024-01-16T03:23:20.535Z,4.27
2024-01-16T03:25:48.140Z,4.10
2024-01-16T03:28:15.386Z,2.47
2024-01-16T03:30:43.095Z,1.97
2024-01-16T03:33:10.575Z,1.80
2024-01-16T03:35:37.911Z,1.53
2024-01-16T03:38:05.189Z,1.50
2024-01-16T03:40:35.358Z,1.50
2024-01-16T03:43:02.914Z,1.50
2024-01-16T03:45:30.031Z,2.60
2024-01-16T03:47:57.461Z,4.90
2024-01-16T03:50:24.675Z,4.43
2024-01-16T03:52:51.792Z,5.23
2024-01-16T03:55:18.993Z,4.93
2024-01-16T03:57:46.109Z,9.57
2024-01-16T04:00:13.703Z,7.70
2024-01-16T04:02:40.932Z,7.53
2024-01-16T04:05:08.262Z,5.60
2024-01-16T04:07:35.466Z,3.27
2024-01-16T04:10:04.013Z,3.43
2024-01-16T04:12:31.108Z,3.37
2024-01-16T04:14:58.366Z,2.63
2024-01-16T04:17:25.504Z,2.60
2024-01-16T04:19:52.632Z,2.23
2024-01-16T04:22:19.743Z,2.47
2024-01-16T04:24:48.069Z,2.70
2024-01-16T04:27:15.981Z,2.60
2024-01-16T04:29:44.522Z,3.63
2024-01-16T04:32:11.804Z,2.87
2024-01-16T04:34:39.080Z,2.80
2024-01-16T04:37:06.186Z,2.63
2024-01-16T04:39:33.297Z,3.27
2024-01-16T04:42:00.414Z,3.57
2024-01-16T04:44:27.630Z,2.67
2024-01-16T04:46:54.762Z,1.73
2024-01-16T04:49:21.959Z,1.50
2024-01-16T04:51:49.180Z,2.00
2024-01-16T04:54:16.273Z,1.60
2024-01-16T04:56:43.431Z,2.07
2024-01-16T04:59:10.626Z,1.93
2024-01-16T05:01:38.496Z,2.60
2024-01-16T05:04:06.313Z,3.70
2024-01-16T05:06:33.631Z,4.23
2024-01-16T05:09:00.887Z,5.17
2024-01-16T05:11:28.035Z,4.03
2024-01-16T05:13:58.961Z,4.30
2024-01-16T05:16:26.968Z,5.07
2024-01-16T05:18:55.001Z,4.83
2024-01-16T05:21:22.429Z,3.60
2024-01-16T05:23:49.688Z,4.90
2024-01-16T05:26:16.901Z,4.30
2024-01-16T05:28:44.168Z,4.00
2024-01-16T05:31:11.387Z,3.83
2024-01-16T05:33:38.625Z,3.73
2024-01-16T05:36:05.908Z,3.50
2024-01-16T05:38:33.213Z,2.97
2024-01-16T05:41:00.342Z,3.03
2024-01-16T05:43:29.850Z,3.00
2024-01-16T05:45:57.054Z,3.00
2024-01-16T05:48:24.388Z,2.60
2024-01-16T05:50:51.636Z,2.80
2024-01-16T05:53:18.890Z,2.67
2024-01-16T05:55:46.102Z,2.73
2024-01-16T05:58:15.191Z,2.83
2024-01-16T06:00:42.528Z,2.90
2024-01-16T06:03:09.692Z,2.87
2024-01-16T06:05:37.104Z,3.43
2024-01-16T06:08:04.412Z,3.53
2024-01-16T06:10:31.506Z,2.97
2024-01-16T06:12:58.656Z,2.67
2024-01-16T06:15:25.785Z,2.27
2024-01-16T06:17:53.022Z,2.73
2024-01-16T06:20:21.412Z,2.60
2024-01-16T06:22:48.562Z,2.43
2024-01-16T06:25:15.718Z,2.53
2024-01-16T06:27:42.868Z,2.30
2024-01-16T06:30:11.137Z,2.40
2024-01-16T06:32:38.544Z,2.37
2024-01-16T06:35:06.802Z,2.47
2024-01-16T06:37:34.048Z,2.50
2024-01-16T06:40:01.330Z,2.30
2024-01-16T06:42:28.454Z,2.10
2024-01-16T06:44:55.768Z,3.20
2024-01-16T06:47:24.978Z,4.17
2024-01-16T06:49:52.146Z,3.70
2024-01-16T06:52:19.250Z,3.27
2024-01-16T06:54:46.425Z,5.10
2024-01-16T06:57:13.660Z,4.37
2024-01-16T06:59:40.837Z,3.53
2024-01-16T07:02:09.097Z,2.97
2024-01-16T07:04:36.292Z,3.80
2024-01-16T07:07:04.041Z,3.53
2024-01-16T07:09:31.189Z,3.67
2024-01-16T07:11:58.718Z,3.70
2024-01-16T07:14:26.547Z,3.20
2024-01-16T07:16:53.673Z,3.03
2024-01-16T07:19:20.853Z,3.43
2024-01-16T07:21:48.010Z,3.47
2024-01-16T07:24:15.196Z,4.40
2024-01-16T07:26:42.727Z,3.43
2024-01-16T07:29:10.238Z,4.10
2024-01-16T07:31:37.431Z,4.23
2024-01-16T07:34:04.722Z,3.87
2024-01-16T07:36:32.176Z,3.93
2024-01-16T07:38:59.303Z,4.03
2024-01-16T07:41:26.536Z,3.27
2024-01-16T07:43:53.913Z,3.97
2024-01-16T07:46:21.062Z,3.23
2024-01-16T07:48:48.398Z,2.60
2024-01-16T07:51:15.865Z,3.83
2024-01-16T07:53:43.015Z,5.70
2024-01-16T07:56:10.489Z,6.07
2024-01-16T07:58:37.708Z,3.30
2024-01-16T08:01:04.954Z,2.80
2024-01-16T08:03:32.177Z,3.23
2024-01-16T08:06:00.362Z,4.90
2024-01-16T08:08:27.739Z,8.23
2024-01-16T08:10:54.912Z,9.97
2024-01-16T08:13:22.211Z,8.30
2024-01-16T08:15:49.520Z,3.93
2024-01-16T08:18:18.821Z,2.90
2024-01-16T08:20:46.170Z,3.00
2024-01-16T08:23:13.679Z,3.73
2024-01-16T08:25:40.914Z,2.53
2024-01-16T08:28:08.041Z,2.70
2024-01-16T08:30:35.220Z,3.07
2024-01-16T08:33:02.801Z,2.70
2024-01-16T08:35:30.337Z,2.70
2024-01-16T08:37:57.687Z,3.13
2024-01-16T08:40:25.064Z,3.60
2024-01-16T08:42:58.016Z,4.73
2024-01-16T08:45:27.179Z,4.07
2024-01-16T08:47:54.540Z,4.40
2024-01-16T08:50:21.896Z,5.97
2024-01-16T08:52:49.029Z,6.70
2024-01-16T08:55:16.197Z,7.23
2024-01-16T08:57:43.337Z,6.13
2024-01-16T09:00:10.647Z,4.77
2024-01-16T09:02:37.946Z,7.20
2024-01-16T09:05:06.273Z,5.23
2024-01-16T09:07:33.694Z,6.87
2024-01-16T09:10:00.848Z,8.60
2024-01-16T09:12:28.035Z,8.57
2024-01-16T09:14:55.232Z,5.57
2024-01-16T09:17:22.556Z,5.53
2024-01-16T09:19:49.870Z,9.97
2024-01-16T09:22:17.339Z,10.27
2024-01-16T09:24:44.563Z,6.57
2024-01-16T09:27:11.668Z,7.63
2024-01-16T09:29:39.281Z,5.43
2024-01-16T09:32:06.765Z,4.27
2024-01-16T09:34:34.074Z,3.13
2024-01-16T09:37:03.875Z,3.10
2024-01-16T09:39:35.840Z,3.40
2024-01-16T09:42:03.064Z,4.23
2024-01-16T09:44:30.774Z,4.67
2024-01-16T09:46:59.726Z,7.20
2024-01-16T09:49:26.905Z,9.00
2024-01-16T09:51:54.407Z,7.80
2024-01-16T09:54:21.594Z,8.73
2024-01-16T09:56:49.996Z,5.00
2024-01-16T09:59:22.348Z,4.10
2024-01-16T10:01:54.064Z,4.87
2024-01-16T10:04:21.505Z,4.30
2024-01-16T10:06:49.873Z,4.57
2024-01-16T10:09:17.302Z,4.63
2024-01-16T10:11:44.804Z,4.70
2024-01-16T10:14:12.312Z,5.47
2024-01-16T10:16:58.994Z,7.40
2024-01-16T10:19:35.219Z,6.40
2024-01-16T10:22:10.137Z,6.87
2024-01-16T10:24:37.324Z,6.30
2024-01-16T10:27:05.467Z,5.43
2024-01-16T10:29:43.254Z,4.00
2024-01-16T10:32:14.816Z,5.00
2024-01-16T10:34:43.301Z,4.97
2024-01-16T10:37:10.861Z,3.97
2024-01-16T10:39:43.601Z,3.93
2024-01-16T10:42:11.326Z,3.07
2024-01-16T10:44:39.350Z,3.13
2024-01-16T10:47:13.243Z,3.10
2024-01-16T10:49:43.594Z,3.50
2024-01-16T10:52:13.908Z,3.30
2024-01-16T10:54:45.473Z,2.70
2024-01-16T10:57:14.801Z,2.83
2024-01-16T10:59:47.497Z,2.33
2024-01-16T11:02:16.724Z,4.83
2024-01-16T11:04:44.862Z,5.10
2024-01-16T11:07:12.568Z,3.90
2024-01-16T11:09:41.010Z,3.47
2024-01-16T11:12:09.219Z,3.50
2024-01-16T11:14:36.853Z,3.50
2024-01-16T11:17:04.655Z,3.50
2024-01-16T11:22:06.122Z,3.43
2024-01-16T11:24:33.465Z,7.07
2024-01-16T11:27:00.697Z,6.20
2024-01-16T11:29:30.975Z,5.03
2024-01-16T11:32:13.141Z,3.03
2024-01-16T11:34:45.936Z,3.40
2024-01-16T11:37:13.604Z,4.67
2024-01-16T11:39:41.616Z,4.90
2024-01-16T11:42:11.857Z,4.37
2024-01-16T11:44:39.204Z,3.73
2024-01-16T11:47:06.625Z,4.17
2024-01-16T11:49:33.953Z,3.70
2024-01-16T11:52:01.316Z,4.37
2024-01-16T11:54:28.543Z,3.80
2024-01-16T11:57:05.686Z,5.27
2024-01-16T11:59:39.882Z,9.00
2024-01-16T12:02:10.980Z,5.30
2024-01-16T12:04:38.140Z,3.23
2024-01-16T12:07:05.479Z,5.30
2024-01-16T12:09:32.613Z,4.77
2024-01-16T12:12:02.249Z,4.10
2024-01-16T12:14:30.063Z,6.47
2024-01-16T12:17:17.041Z,5.93
2024-01-16T12:19:45.197Z,3.93
2024-01-16T12:22:15.300Z,4.23
2024-01-16T12:24:42.684Z,5.47
2024-01-16T12:27:10.381Z,3.53
2024-01-16T12:29:37.782Z,4.67
2024-01-16T12:32:09.506Z,4.43
2024-01-16T12:34:37.173Z,3.80
2024-01-16T12:37:11.149Z,5.50
2024-01-16T12:39:38.301Z,3.63
2024-01-16T12:42:05.687Z,3.13
2024-01-16T12:44:32.862Z,3.97
2024-01-16T12:47:02.975Z,3.90
2024-01-16T12:49:30.365Z,3.60
2024-01-16T12:52:16.241Z,4.03
2024-01-16T12:54:43.471Z,4.30
2024-01-16T12:57:15.017Z,3.97
2024-01-16T12:59:42.900Z,4.73
2024-01-16T13:02:10.099Z,4.33
2024-01-16T13:04:37.246Z,4.63
2024-01-16T13:07:05.309Z,4.77
2024-01-16T13:09:32.924Z,5.07
2024-01-16T13:12:01.397Z,5.93
2024-01-16T13:14:28.625Z,4.50
2024-01-16T13:16:58.834Z,5.90
2024-01-16T13:19:26.849Z,6.20
2024-01-16T13:21:55.038Z,5.90
2024-01-16T13:24:24.972Z,5.43
2024-01-16T13:26:53.121Z,5.47
2024-01-16T13:29:21.045Z,5.70
2024-01-16T13:31:49.178Z,5.60
2024-01-16T13:34:19.179Z,5.13
2024-01-16T13:37:00.086Z,5.00
2024-01-16T13:39:39.222Z,8.53
2024-01-16T13:42:07.914Z,7.57
2024-01-16T13:44:35.257Z,6.13
2024-01-16T13:47:08.240Z,5.10
2024-01-16T13:49:38.896Z,4.60
2024-01-16T13:52:06.304Z,4.63
2024-01-16T13:54:33.483Z,5.10
2024-01-16T13:57:06.803Z,4.60
2024-01-16T13:59:36.038Z,4.40
2024-01-16T14:02:04.226Z,5.17
2024-01-16T14:04:31.499Z,5.20
2024-01-16T14:07:10.986Z,8.67
2024-01-16T14:09:44.920Z,10.03
2024-01-16T14:12:13.300Z,8.40
2024-01-16T14:14:42.090Z,8.90
2024-01-16T14:17:09.438Z,9.57
2024-01-16T14:19:36.896Z,12.50
2024-01-16T14:22:04.339Z,13.90
2024-01-16T14:24:31.508Z,10.73
2024-01-16T14:26:58.776Z,13.17
2024-01-16T14:29:27.826Z,14.17
2024-01-16T14:31:57.063Z,13.83
2024-01-16T14:34:24.639Z,14.40
2024-01-16T14:36:52.197Z,8.90
2024-01-16T14:39:25.748Z,8.33
2024-01-16T14:41:53.415Z,7.00
2024-01-16T14:44:20.658Z,8.93
2024-01-16T14:46:50.085Z,12.07
2024-01-16T14:49:19.429Z,9.87
2024-01-16T14:51:47.648Z,13.07
2024-01-16T14:54:15.193Z,23.27
2024-01-16T14:56:42.611Z,44.83
2024-01-16T14:59:13.085Z,38.77
2024-01-16T15:01:42.272Z,18.27
2024-01-16T15:04:10.113Z,14.93
2024-01-16T15:06:37.471Z,16.90
2024-01-16T15:09:05.481Z,18.00
2024-01-16T15:11:32.915Z,15.80
2024-01-16T15:14:00.142Z,16.17
2024-01-16T15:16:27.271Z,21.73
2024-01-16T15:18:54.557Z,17.00
2024-01-16T15:21:21.777Z,17.27
2024-01-16T15:23:49.157Z,15.70
2024-01-16T15:26:21.814Z,18.27
2024-01-16T15:28:50.585Z,18.13
2024-01-16T15:31:19.165Z,21.57
2024-01-16T15:33:46.873Z,23.00
2024-01-16T15:36:14.167Z,23.80
2024-01-16T15:38:41.441Z,21.30
2024-01-16T15:41:08.930Z,27.10
2024-01-16T15:43:36.433Z,26.67
2024-01-16T15:46:03.762Z,25.57
2024-01-16T15:48:35.404Z,32.10
2024-01-16T15:51:04.773Z,32.53
2024-01-16T15:53:36.084Z,28.30
2024-01-16T15:56:06.466Z,41.40
2024-01-16T16:27:38.469Z,17.70
2024-01-16T16:30:06.482Z,19.20
2024-01-16T16:32:33.753Z,20.33
2024-01-16T16:35:01.084Z,18.00
2024-01-16T16:37:28.206Z,19.43
2024-01-16T16:39:55.340Z,20.03
2024-01-16T16:42:22.558Z,20.03
2024-01-16T16:44:49.809Z,23.43
2024-01-16T16:47:18.153Z,22.70
2024-01-16T16:49:45.397Z,22.30
2024-01-16T16:52:12.582Z,22.70
2024-01-16T16:54:39.782Z,23.27
2024-01-16T17:00:48.394Z,24.00
2024-01-16T17:03:15.589Z,23.97
2024-01-16T17:05:42.938Z,24.10
2024-01-16T17:08:12.210Z,29.40
2024-01-16T17:10:40.191Z,24.80
2024-01-16T17:13:07.394Z,19.87
2024-01-16T17:15:34.596Z,20.63
2024-01-16T17:18:01.842Z,21.67
2024-01-16T17:20:30.098Z,20.37
2024-01-16T17:22:57.432Z,20.73
2024-01-16T17:25:24.626Z,20.23
2024-01-16T17:27:51.812Z,24.23
2024-01-16T17:30:18.982Z,20.80
2024-01-16T17:32:46.432Z,20.70
2024-01-16T17:35:14.933Z,22.63
2024-01-16T17:37:42.144Z,21.50
2024-01-16T17:40:13.414Z,26.53
2024-01-16T17:42:41.028Z,21.53
2024-01-16T17:45:09.606Z,21.77
2024-01-16T17:47:37.424Z,21.43
2024-01-16T17:50:07.633Z,20.83
2024-01-16T17:52:36.512Z,21.83
2024-01-16T17:55:03.943Z,22.93
2024-01-16T17:57:31.103Z,22.60
2024-01-16T17:59:58.331Z,24.20
2024-01-16T18:02:25.686Z,23.00
2024-01-16T18:04:52.840Z,23.70
2024-01-16T18:07:19.955Z,26.10
2024-01-16T18:09:48.483Z,24.63
2024-01-16T18:52:47.531Z,15.03
2024-01-16T18:55:16.391Z,12.60
2024-01-16T18:57:44.207Z,12.67
2024-01-16T19:00:15.651Z,13.00
2024-01-16T19:02:49.438Z,13.77
2024-01-16T19:05:17.829Z,15.57
2024-01-16T19:07:45.919Z,13.07
2024-01-16T19:10:13.854Z,18.73
2024-01-16T19:12:47.230Z,13.17
2024-01-16T19:15:20.556Z,14.63
2024-01-16T19:17:48.902Z,11.30
2024-01-16T19:20:16.483Z,11.47
2024-01-16T19:22:44.523Z,10.97
2024-01-16T19:25:12.434Z,11.67
2024-01-16T19:27:41.864Z,10.97
2024-01-16T19:30:14.580Z,10.77
2024-01-16T19:32:45.587Z,11.80
2024-01-16T19:35:13.361Z,10.43
2024-01-16T19:37:41.542Z,11.30
2024-01-16T19:40:11.630Z,11.77
2024-01-16T19:42:40.010Z,11.53
2024-01-16T19:45:11.552Z,10.17
2024-01-16T19:47:41.632Z,11.50
2024-01-16T19:50:23.092Z,10.73
2024-01-16T19:52:52.635Z,10.77
2024-01-16T19:55:22.591Z,10.57
2024-01-16T19:57:50.147Z,11.23
2024-01-16T20:00:17.914Z,11.63
2024-01-16T20:02:45.811Z,13.70
2024-01-16T20:05:17.235Z,13.10
2024-01-16T20:07:45.253Z,13.33
2024-01-16T20:10:15.710Z,14.60
2024-01-16T20:12:43.326Z,13.07
2024-01-16T20:15:14.806Z,12.07
2024-01-16T20:17:42.590Z,11.73
2024-01-16T20:20:11.211Z,14.83
2024-01-16T20:22:41.591Z,13.60
2024-01-16T20:25:08.826Z,25.33
2024-01-16T20:27:36.357Z,14.07
2024-01-16T20:30:06.309Z,10.30
2024-01-16T20:32:35.036Z,12.37
2024-01-16T20:35:02.735Z,12.27
2024-01-16T20:37:34.148Z,12.33
2024-01-16T20:40:01.359Z,12.23
2024-01-16T20:42:28.539Z,10.83
2024-01-16T20:44:55.759Z,10.53
2024-01-16T20:47:23.133Z,10.63
2024-01-16T20:49:50.699Z,10.33
2024-01-16T20:52:18.102Z,9.23
2024-01-16T20:54:45.243Z,10.93
2024-01-16T20:57:12.417Z,12.73
2024-01-16T20:59:40.435Z,10.53
2024-01-16T21:02:08.046Z,10.53
2024-01-16T21:04:35.523Z,9.70
2024-01-16T21:07:05.724Z,10.17
2024-01-16T21:09:34.013Z,10.63
2024-01-16T21:12:03.686Z,10.57
2024-01-16T21:14:32.947Z,10.43
2024-01-16T21:17:00.264Z,10.13
2024-01-16T21:19:27.430Z,10.90
2024-01-16T21:21:56.450Z,10.63
2024-01-16T21:24:23.893Z,11.83
2024-01-16T21:26:51.775Z,13.00
2024-01-16T21:29:19.811Z,11.13
2024-01-16T21:31:48.868Z,11.80
2024-01-16T21:34:18.287Z,12.27
2024-01-16T21:36:48.512Z,11.13
2024-01-16T21:39:16.403Z,11.63
2024-01-16T21:41:47.579Z,11.03
2024-01-16T21:44:14.949Z,10.87
2024-01-16T21:46:43.475Z,10.37
2024-01-16T21:49:11.836Z,10.03
2024-01-16T21:51:39.527Z,9.90
2024-01-16T21:54:07.350Z,9.60
2024-01-16T21:56:34.987Z,10.87
2024-01-16T21:59:02.305Z,10.90
2024-01-16T22:01:30.784Z,9.63
2024-01-16T22:03:58.410Z,9.90
2024-01-16T22:06:26.184Z,11.03
2024-01-16T22:08:58.480Z,11.60
2024-01-16T22:11:25.786Z,10.13
2024-01-16T22:13:53.545Z,10.20
2024-01-16T22:16:20.749Z,11.17
2024-01-16T22:18:49.878Z,9.80
2024-01-16T22:21:17.435Z,10.27
2024-01-16T22:23:47.959Z,9.53
2024-01-16T22:26:15.928Z,9.53
2024-01-16T22:28:45.511Z,10.93
2024-01-16T22:31:12.916Z,10.00
2024-01-16T22:33:40.308Z,10.47
2024-01-16T22:36:10.356Z,9.87
2024-01-16T22:38:44.189Z,11.40
2024-01-16T22:41:12.723Z,13.70
2024-01-16T22:43:39.858Z,13.33
2024-01-16T22:46:08.931Z,12.07
2024-01-16T22:48:36.204Z,11.57
2024-01-16T22:51:03.742Z,12.00
2024-01-16T22:53:31.108Z,10.33
2024-01-16T22:55:59.626Z,10.17
2024-01-16T22:58:26.860Z,11.40
2024-01-16T23:00:55.049Z,10.90
2024-01-16T23:03:22.601Z,12.60
2024-01-16T23:05:50.166Z,11.80
2024-01-16T23:08:19.661Z,12.50
2024-01-16T23:10:50.237Z,12.00
2024-01-16T23:13:20.054Z,12.03
2024-01-16T23:15:47.257Z,10.90
2024-01-16T23:18:14.975Z,10.77
2024-01-16T23:20:43.440Z,11.97
2024-01-16T23:23:13.300Z,10.50
2024-01-16T23:25:42.812Z,11.63
2024-01-16T23:28:09.944Z,11.03
2024-01-16T23:30:40.457Z,10.80
2024-01-16T23:33:08.269Z,11.40
2024-01-16T23:35:35.524Z,12.03
2024-01-16T23:38:02.929Z,10.83
2024-01-16T23:40:30.097Z,11.47
2024-01-16T23:42:58.637Z,12.43
2024-01-16T23:45:30.839Z,12.20
2024-01-16T23:48:00.982Z,11.93
2024-01-16T23:50:29.960Z,11.83
2024-01-16T23:52:57.180Z,11.10
2024-01-16T23:55:24.455Z,11.07
2024-01-16T23:57:51.713Z,10.83
